Time;durP1;ratioP1;P1;durP2;ratioP2;P2;SDS_P1;SDS_P2;PMS_P1;PMS_P2;Temp;Humidity;BMP_temperature;BMP_pressure;BME280_temperature;BME280_humidity;BME280_pressure;Samples;Min_cycle;Max_cycle;Signal;HPM_P1;HPM_P2
2020/12/21 00:01:29;;;;;;;4.90;1.97;;;17.70;61.50;;;;;;5025511;28;20837;-57
2020/12/21 00:03:58;;;;;;;3.83;1.80;;;17.70;61.40;;;;;;5024113;28;20758;-57
2020/12/21 00:06:24;;;;;;;3.57;1.60;;;17.70;61.40;;;;;;5018209;28;20230;-57
2020/12/21 00:08:50;;;;;;;5.10;2.03;;;17.70;61.50;;;;;;5031756;28;20233;-57
2020/12/21 00:11:16;;;;;;;4.13;2.20;;;17.60;61.30;;;;;;5018423;28;20233;-57
2020/12/21 00:13:43;;;;;;;3.63;1.87;;;17.70;61.30;;;;;;5030768;28;20783;-58
2020/12/21 00:16:10;;;;;;;3.57;1.73;;;17.70;61.50;;;;;;5020709;28;20280;-57
2020/12/21 00:18:38;;;;;;;3.60;2.00;;;17.70;61.40;;;;;;5028584;28;20225;-57
2020/12/21 00:21:05;;;;;;;4.20;1.83;;;17.70;61.60;;;;;;5020998;28;20210;-57
2020/12/21 00:23:31;;;;;;;4.33;1.70;;;17.60;61.40;;;;;;5031506;28;20226;-57
2020/12/21 00:25:57;;;;;;;4.00;1.60;;;17.70;61.50;;;;;;5018215;28;21892;-57
2020/12/21 00:28:24;;;;;;;2.70;1.77;;;17.60;61.70;;;;;;5032461;28;20219;-57
2020/12/21 00:30:50;;;;;;;5.10;2.23;;;17.60;61.70;;;;;;5005091;28;20578;-57
2020/12/21 00:33:32;;;;;;;2.90;1.67;;;17.60;61.70;;;;;;5027765;28;20241;-57
2020/12/21 00:35:58;;;;;;;4.70;1.70;;;17.60;61.70;;;;;;5020557;28;20222;-57
2020/12/21 00:38:25;;;;;;;3.17;1.70;;;17.60;61.60;;;;;;5030518;28;20269;-57
2020/12/21 00:40:51;;;;;;;4.07;1.60;;;17.60;61.60;;;;;;5020259;28;20229;-57
2020/12/21 00:43:18;;;;;;;2.93;1.47;;;17.60;61.60;;;;;;5027184;28;20231;-57
2020/12/21 00:45:44;;;;;;;3.47;1.63;;;17.60;61.80;;;;;;5028277;28;20231;-57
2020/12/21 00:48:11;;;;;;;5.30;2.03;;;17.60;61.70;;;;;;5020078;28;20219;-57
2020/12/21 00:50:37;;;;;;;3.23;1.80;;;17.60;61.80;;;;;;5028072;28;20221;-57
2020/12/21 00:53:03;;;;;;;4.67;2.10;;;17.50;61.80;;;;;;5020820;28;20600;-57
2020/12/21 00:55:30;;;;;;;4.77;1.93;;;17.60;62.00;;;;;;5028686;28;20557;-57
2020/12/21 00:57:56;;;;;;;6.13;1.67;;;17.50;61.70;;;;;;5019551;28;20234;-57
2020/12/21 01:00:22;;;;;;;3.90;1.70;;;17.50;61.80;;;;;;5028748;28;20223;-57
2020/12/21 01:02:49;;;;;;;3.50;1.80;;;17.50;61.80;;;;;;5020495;28;20227;-58
2020/12/21 01:05:15;;;;;;;4.47;1.70;;;17.50;61.80;;;;;;5028795;28;20223;-57
2020/12/21 01:07:42;;;;;;;3.50;1.70;;;17.50;61.90;;;;;;5019712;28;20230;-57
2020/12/21 01:10:08;;;;;;;2.57;1.47;;;17.50;61.60;;;;;;5028641;28;20226;-57
2020/12/21 01:12:34;;;;;;;3.03;1.70;;;17.50;61.90;;;;;;5020390;28;20242;-58
2020/12/21 01:15:00;;;;;;;3.70;1.43;;;17.50;62.00;;;;;;5028720;28;20237;-57
2020/12/21 01:17:32;;;;;;;4.83;1.90;;;17.50;61.90;;;;;;5020460;28;20219;-57
2020/12/21 01:19:59;;;;;;;3.87;1.63;;;17.50;62.00;;;;;;5026615;28;20258;-57
2020/12/21 01:22:26;;;;;;;3.27;1.80;;;17.50;62.00;;;;;;5021502;28;20223;-57
2020/12/21 01:24:52;;;;;;;4.03;1.67;;;17.50;61.90;;;;;;5027384;28;20234;-57
2020/12/21 01:27:18;;;;;;;3.50;1.60;;;17.40;62.00;;;;;;5026537;28;20769;-57
2020/12/21 01:29:45;;;;;;;2.50;1.20;;;17.50;62.00;;;;;;5021278;28;20227;-57
2020/12/21 01:32:11;;;;;;;3.73;1.50;;;17.40;61.90;;;;;;5027123;28;20223;-61
2020/12/21 01:34:38;;;;;;;4.20;1.70;;;17.40;61.90;;;;;;5021528;28;20225;-57
2020/12/21 01:37:04;;;;;;;4.07;1.60;;;17.40;61.90;;;;;;5028032;28;20229;-57
2020/12/21 01:39:31;;;;;;;3.60;1.60;;;17.40;62.00;;;;;;5018554;28;20234;-58
2020/12/21 01:41:57;;;;;;;4.00;1.80;;;17.40;62.00;;;;;;5025901;28;20223;-57
2020/12/21 01:44:24;;;;;;;4.80;1.90;;;17.40;62.00;;;;;;5021116;28;20234;-58
2020/12/21 01:46:50;;;;;;;3.87;1.60;;;17.40;61.90;;;;;;5028940;28;20234;-57
2020/12/21 01:49:17;;;;;;;4.37;1.47;;;17.40;62.60;;;;;;5016769;28;20702;-57
2020/12/21 01:51:43;;;;;;;3.73;1.73;;;17.40;61.90;;;;;;5029270;28;20219;-57
2020/12/21 01:54:10;;;;;;;3.30;1.80;;;17.40;61.90;;;;;;5018825;28;20230;-57
2020/12/21 01:56:36;;;;;;;2.73;1.37;;;17.40;61.90;;;;;;5027046;28;20223;-57
2020/12/21 01:59:03;;;;;;;4.07;1.50;;;17.40;61.90;;;;;;5018639;28;20231;-60
2020/12/21 02:01:32;;;;;;;3.27;1.70;;;17.40;61.80;;;;;;5029450;28;20234;-57
2020/12/21 02:03:58;;;;;;;2.93;1.40;;;17.40;61.80;;;;;;5027555;28;20572;-56
2020/12/21 02:06:25;;;;;;;5.93;1.70;;;17.40;61.80;;;;;;5019721;28;20227;-58
2020/12/21 02:08:52;;;;;;;2.87;1.60;;;17.40;61.80;;;;;;5029724;28;20242;-57
2020/12/21 02:11:18;;;;;;;3.23;1.80;;;17.30;61.80;;;;;;5019330;28;20493;-58
2020/12/21 02:13:44;;;;;;;8.67;1.77;;;17.30;61.80;;;;;;5027132;28;20226;-57
2020/12/21 02:16:15;;;;;;;4.60;1.60;;;17.30;61.80;;;;;;5020204;28;20226;-58
2020/12/21 02:18:42;;;;;;;3.53;1.60;;;17.30;61.80;;;;;;5024854;28;20896;-56
2020/12/21 02:21:08;;;;;;;2.67;1.27;;;17.30;61.80;;;;;;5019006;28;20330;-57
2020/12/21 02:23:35;;;;;;;2.97;1.53;;;17.30;61.90;;;;;;5025925;28;20222;-56
2020/12/21 02:26:01;;;;;;;2.67;1.47;;;17.30;62.40;;;;;;5018454;28;20238;-58
2020/12/21 02:28:28;;;;;;;2.83;1.43;;;17.30;61.80;;;;;;5027518;28;20210;-56
2020/12/21 02:30:54;;;;;;;3.20;1.60;;;17.30;61.90;;;;;;5016990;28;20896;-57
2020/12/21 02:33:21;;;;;;;3.40;1.60;;;17.30;61.90;;;;;;5026365;28;20215;-58
2020/12/21 02:35:47;;;;;;;4.03;1.93;;;17.30;61.80;;;;;;5019329;28;23348;-56
2020/12/21 02:38:14;;;;;;;3.27;1.80;;;17.30;61.80;;;;;;5026520;28;20230;-58
2020/12/21 02:40:41;;;;;;;3.87;1.50;;;17.30;61.80;;;;;;5020480;28;20223;-58
2020/12/21 02:43:19;;;;;;;2.90;1.60;;;17.30;61.70;;;;;;5027296;28;20231;-58
2020/12/21 02:45:45;;;;;;;2.57;1.27;;;17.30;61.70;;;;;;5024864;28;20261;-57
2020/12/21 02:48:12;;;;;;;2.87;1.47;;;17.30;61.70;;;;;;5018642;28;20580;-57
2020/12/21 02:50:38;;;;;;;3.30;1.50;;;17.30;61.70;;;;;;5027385;28;20225;-58
2020/12/21 02:53:04;;;;;;;3.73;1.57;;;17.30;61.70;;;;;;5019957;28;20214;-58
2020/12/21 02:55:31;;;;;;;3.60;1.40;;;17.30;61.70;;;;;;5024944;28;20230;-58
2020/12/21 02:57:57;;;;;;;2.90;1.47;;;17.20;61.60;;;;;;5018850;28;20223;-58
2020/12/21 03:00:23;;;;;;;2.77;1.80;;;17.20;61.60;;;;;;5026866;28;20234;-57
2020/12/21 03:02:49;;;;;;;4.07;1.50;;;17.30;61.60;;;;;;5018776;28;20691;-57
2020/12/21 03:05:16;;;;;;;4.63;1.77;;;17.30;61.60;;;;;;5025328;28;20576;-58
2020/12/21 03:07:42;;;;;;;3.97;1.67;;;17.20;61.60;;;;;;5019887;28;20223;-58
2020/12/21 03:10:08;;;;;;;2.83;1.50;;;17.20;61.60;;;;;;5025514;28;20254;-57
2020/12/21 03:12:34;;;;;;;5.10;1.30;;;17.20;61.60;;;;;;5018126;28;20226;-57
2020/12/21 03:15:01;;;;;;;2.20;1.10;;;17.20;61.60;;;;;;5025707;28;20226;-57
2020/12/21 03:17:28;;;;;;;5.27;1.80;;;17.20;61.70;;;;;;5019244;28;20226;-57
2020/12/21 03:19:54;;;;;;;3.87;1.53;;;17.20;61.60;;;;;;5024832;28;20233;-58
2020/12/21 03:22:22;;;;;;;5.27;1.77;;;17.20;61.60;;;;;;5028827;28;20499;-57
2020/12/21 03:24:48;;;;;;;3.40;1.37;;;17.20;61.60;;;;;;5021053;28;20242;-59
2020/12/21 03:27:15;;;;;;;2.67;1.60;;;17.20;61.60;;;;;;5026277;28;20278;-57
2020/12/21 03:29:42;;;;;;;3.27;1.57;;;17.20;61.50;;;;;;5017317;28;20256;-57
2020/12/21 03:32:08;;;;;;;2.40;1.30;;;17.20;61.60;;;;;;5024853;28;20776;-57
2020/12/21 03:34:34;;;;;;;2.23;1.47;;;17.20;61.40;;;;;;5017576;28;20822;-58
2020/12/21 03:37:01;;;;;;;2.53;1.43;;;17.20;61.40;;;;;;5026483;28;20230;-58
2020/12/21 03:39:28;;;;;;;2.40;1.20;;;17.10;61.30;;;;;;5017262;28;20296;-57
2020/12/21 03:41:55;;;;;;;4.00;1.80;;;17.20;61.30;;;;;;5022657;28;20235;-57
2020/12/21 03:44:21;;;;;;;3.80;1.37;;;17.20;61.30;;;;;;5019038;28;20233;-57
2020/12/21 03:46:47;;;;;;;2.30;1.20;;;17.10;61.20;;;;;;5027357;28;20221;-58
2020/12/21 03:49:13;;;;;;;3.50;1.33;;;17.10;61.00;;;;;;5016313;28;20246;-58
2020/12/21 03:51:41;;;;;;;2.97;1.40;;;17.10;61.00;;;;;;5022125;28;20230;-58
2020/12/21 03:54:07;;;;;;;2.17;1.00;;;17.10;61.00;;;;;;5018434;28;20246;-57
2020/12/21 03:56:33;;;;;;;2.67;1.40;;;17.20;60.90;;;;;;5025198;28;20731;-58
2020/12/21 03:58:59;;;;;;;2.10;1.30;;;17.10;60.80;;;;;;5019782;28;20756;-57
2020/12/21 04:01:26;;;;;;;3.83;1.20;;;17.10;60.90;;;;;;5010460;28;20734;-58
2020/12/21 04:03:52;;;;;;;2.90;1.30;;;17.10;60.80;;;;;;5024887;28;20234;-58
2020/12/21 04:06:18;;;;;;;3.13;1.47;;;17.10;60.90;;;;;;5015505;28;20226;-57
2020/12/21 04:08:45;;;;;;;2.63;1.30;;;17.10;60.70;;;;;;5026456;28;20234;-57
2020/12/21 04:11:11;;;;;;;2.70;1.33;;;17.10;60.70;;;;;;5017598;28;20218;-57
2020/12/21 04:13:37;;;;;;;3.17;1.50;;;17.10;60.80;;;;;;5024692;28;20238;-58
2020/12/21 04:16:14;;;;;;;3.47;1.30;;;17.10;60.80;;;;;;5016448;28;20726;-58
2020/12/21 04:18:41;;;;;;;3.17;1.40;;;17.10;60.80;;;;;;5027990;28;20226;-58
2020/12/21 04:21:11;;;;;;;2.90;1.20;;;17.10;60.80;;;;;;5016828;28;20230;-58
2020/12/21 04:23:38;;;;;;;5.63;1.40;;;17.10;60.80;;;;;;5024100;28;20698;-57
2020/12/21 04:26:05;;;;;;;3.17;1.60;;;17.10;60.80;;;;;;5017292;28;20218;-58
2020/12/21 04:28:33;;;;;;;3.13;1.40;;;17.10;60.80;;;;;;5025671;28;20215;-57
2020/12/21 04:31:06;;;;;;;3.33;1.30;;;17.10;60.70;;;;;;5016341;28;20226;-58
2020/12/21 04:33:33;;;;;;;3.67;1.20;;;17.00;60.60;;;;;;5025506;28;20286;-58
2020/12/21 04:36:11;;;;;;;4.30;1.33;;;17.10;60.70;;;;;;5017256;28;20219;-58
2020/12/21 04:38:39;;;;;;;3.20;1.20;;;17.10;60.60;;;;;;5024174;28;20353;-57
2020/12/21 04:41:07;;;;;;;3.13;1.30;;;17.00;60.60;;;;;;5016115;28;21535;-58
2020/12/21 04:43:33;;;;;;;2.63;1.07;;;17.10;60.70;;;;;;5024323;28;20254;-58
2020/12/21 04:46:04;;;;;;;3.63;1.30;;;17.10;60.60;;;;;;5016533;28;20876;-58
2020/12/21 04:48:32;;;;;;;3.07;1.37;;;17.10;60.60;;;;;;5026467;28;20246;-58
2020/12/21 04:50:59;;;;;;;3.50;1.27;;;17.10;61.20;;;;;;5025133;28;20277;-58
2020/12/21 04:53:25;;;;;;;2.77;1.00;;;17.10;60.60;;;;;;5017204;28;20223;-58
2020/12/21 04:55:52;;;;;;;3.70;1.40;;;17.00;60.50;;;;;;5027990;28;20242;-57
2020/12/21 04:58:19;;;;;;;2.33;1.07;;;17.10;60.50;;;;;;5019751;28;20231;-58
2020/12/21 05:00:45;;;;;;;6.53;1.80;;;17.00;60.40;;;;;;5028660;28;20242;-58
2020/12/21 05:03:12;;;;;;;3.17;1.23;;;17.00;60.30;;;;;;5020808;28;20815;-58
2020/12/21 05:05:42;;;;;;;3.33;1.60;;;17.00;60.20;;;;;;5028338;28;20238;-57
2020/12/21 05:08:10;;;;;;;2.60;1.60;;;17.00;60.20;;;;;;5020781;28;20578;-58
2020/12/21 05:10:38;;;;;;;3.10;1.10;;;17.00;60.20;;;;;;5028364;28;20235;-58
2020/12/21 05:13:05;;;;;;;3.70;1.37;;;17.00;60.10;;;;;;5020281;28;20238;-58
2020/12/21 05:15:31;;;;;;;3.47;1.30;;;17.00;60.10;;;;;;5029371;28;20219;-58
2020/12/21 05:18:08;;;;;;;3.10;1.23;;;17.10;60.10;;;;;;5012415;28;20242;-58
2020/12/21 05:20:39;;;;;;;2.47;1.13;;;17.00;60.00;;;;;;5021249;28;20249;-58
2020/12/21 05:23:16;;;;;;;2.63;1.20;;;17.00;60.00;;;;;;5013374;28;20575;-58
2020/12/21 05:25:43;;;;;;;5.10;1.67;;;17.10;60.00;;;;;;5029437;28;20724;-58
2020/12/21 05:28:15;;;;;;;4.60;1.30;;;17.10;60.10;;;;;;5020455;28;20226;-58
2020/12/21 05:31:11;;;;;;;2.23;1.07;;;17.00;60.00;;;;;;5024865;28;20243;-58
2020/12/21 05:33:45;;;;;;;5.03;1.37;;;17.10;60.00;;;;;;5003698;28;20274;-58
2020/12/21 05:36:15;;;;;;;3.60;1.60;;;17.10;60.00;;;;;;5026967;28;20231;-58
2020/12/21 05:39:05;;;;;;;2.13;1.03;;;17.10;60.00;;;;;;5020583;28;20226;-58
2020/12/21 05:41:31;;;;;;;3.17;1.03;;;17.10;59.90;;;;;;5027476;28;20433;-57
2020/12/21 05:44:04;;;;;;;2.10;1.20;;;17.00;59.90;;;;;;5019190;28;20722;-58
2020/12/21 05:46:30;;;;;;;1.30;0.90;;;17.00;59.90;;;;;;5028655;28;20698;-58
2020/12/21 05:48:59;;;;;;;2.60;1.27;;;17.00;60.00;;;;;;5017018;28;20230;-58
2020/12/21 05:51:26;;;;;;;2.43;1.20;;;17.10;60.00;;;;;;5027050;28;20230;-58
2020/12/21 05:53:54;;;;;;;2.50;1.40;;;17.00;59.90;;;;;;5017553;28;20250;-58
2020/12/21 05:56:23;;;;;;;3.17;1.40;;;17.00;59.80;;;;;;5025030;28;20808;-58
2020/12/21 05:58:49;;;;;;;2.80;1.03;;;17.00;59.70;;;;;;5027266;28;20221;-58
2020/12/21 06:01:18;;;;;;;3.17;1.23;;;17.00;59.90;;;;;;5011905;28;20219;-58
2020/12/21 06:03:45;;;;;;;2.47;1.00;;;17.00;59.80;;;;;;5025434;28;20238;-57
2020/12/21 06:06:23;;;;;;;2.77;1.30;;;17.00;59.80;;;;;;5017556;28;20695;-58
2020/12/21 06:08:52;;;;;;;2.43;1.37;;;17.00;59.80;;;;;;5025999;28;20222;-58
2020/12/21 06:11:21;;;;;;;5.40;1.40;;;17.00;59.70;;;;;;5020041;28;20216;-58
2020/12/21 06:13:48;;;;;;;2.13;1.00;;;17.00;59.70;;;;;;5025024;28;20223;-57
2020/12/21 06:16:16;;;;;;;4.07;1.30;;;17.00;59.70;;;;;;5018403;28;20218;-57
2020/12/21 06:18:54;;;;;;;3.80;1.40;;;17.00;59.70;;;;;;5025412;28;20897;-58
2020/12/21 06:21:29;;;;;;;3.50;1.40;;;17.00;59.70;;;;;;5006093;28;21193;-58
2020/12/21 06:23:56;;;;;;;3.27;1.30;;;17.00;59.70;;;;;;5014693;28;20278;-58
2020/12/21 06:26:37;;;;;;;1.93;0.90;;;17.00;59.70;;;;;;5017177;28;20215;-58
2020/12/21 06:29:07;;;;;;;4.33;1.50;;;17.00;59.60;;;;;;5024539;28;20730;-58
2020/12/21 06:31:38;;;;;;;3.97;1.20;;;17.00;59.70;;;;;;5019143;28;20234;-58
2020/12/21 06:34:05;;;;;;;2.90;1.23;;;17.00;59.50;;;;;;5024996;28;20229;-58
2020/12/21 06:36:33;;;;;;;3.20;1.20;;;17.00;59.50;;;;;;5019415;28;20215;-59
2020/12/21 06:38:59;;;;;;;4.47;1.70;;;17.00;59.50;;;;;;5024705;28;20231;-57
2020/12/21 06:41:27;;;;;;;2.93;1.37;;;17.00;59.60;;;;;;5018072;28;20567;-58
2020/12/21 06:44:07;;;;;;;3.43;1.40;;;17.00;59.50;;;;;;5026266;28;20835;-58
2020/12/21 06:46:35;;;;;;;2.77;1.40;;;17.00;59.50;;;;;;5017310;28;20227;-58
2020/12/21 06:49:13;;;;;;;3.80;1.43;;;17.00;59.50;;;;;;5027057;28;20284;-56
2020/12/21 06:51:42;;;;;;;2.93;1.10;;;17.00;59.50;;;;;;5015960;28;20694;-58
2020/12/21 06:54:10;;;;;;;2.07;0.90;;;17.00;59.50;;;;;;5025481;28;20239;-58
2020/12/21 06:56:38;;;;;;;2.63;1.23;;;17.00;59.50;;;;;;5018655;28;20865;-57
2020/12/21 06:59:24;;;;;;;3.67;1.27;;;17.00;59.60;;;;;;5020400;28;20888;-59
2020/12/21 07:01:52;;;;;;;6.20;1.27;;;17.00;59.70;;;;;;5015295;28;20583;-59
2020/12/21 07:04:23;;;;;;;2.97;1.20;;;17.40;59.80;;;;;;5025468;28;20680;-59
2020/12/21 07:06:51;;;;;;;2.57;1.17;;;17.80;58.80;;;;;;5017163;28;20223;-59
2020/12/21 07:09:29;;;;;;;2.20;1.10;;;18.20;58.10;;;;;;5025111;28;20551;-59
2020/12/21 07:12:04;;;;;;;2.03;1.00;;;18.50;57.30;;;;;;5022099;28;20578;-59
2020/12/21 07:14:34;;;;;;;2.43;1.00;;;18.70;56.70;;;;;;5023861;28;20521;-58
2020/12/21 07:17:05;;;;;;;2.80;1.40;;;19.00;56.20;;;;;;5025755;28;20230;-58
2020/12/21 07:19:33;;;;;;;2.13;0.83;;;19.10;55.70;;;;;;5014951;28;20233;-59
2020/12/21 07:22:02;;;;;;;3.13;1.30;;;19.30;55.60;;;;;;5024636;28;20833;-59
2020/12/21 07:24:34;;;;;;;3.07;1.00;;;19.40;55.00;;;;;;5017184;28;20283;-56
2020/12/21 07:27:00;;;;;;;4.03;1.07;;;19.50;54.70;;;;;;5025345;28;20222;-58
2020/12/21 07:29:39;;;;;;;2.40;1.00;;;19.70;54.50;;;;;;5017286;28;20241;-58
2020/12/21 07:32:06;;;;;;;2.37;1.20;;;19.80;54.20;;;;;;5029743;28;20855;-57
2020/12/21 07:34:34;;;;;;;2.00;1.20;;;20.00;53.90;;;;;;5016474;28;20711;-59
2020/12/21 07:37:09;;;;;;;1.77;0.90;;;20.10;53.70;;;;;;5026013;28;20223;-58
2020/12/21 07:39:37;;;;;;;3.37;1.13;;;20.20;53.50;;;;;;5018612;28;20239;-59
2020/12/21 07:42:11;;;;;;;2.03;1.20;;;20.30;53.50;;;;;;5030973;28;20249;-59
2020/12/21 07:44:47;;;;;;;4.93;1.30;;;20.30;53.30;;;;;;5017668;28;20219;-58
2020/12/21 07:47:19;;;;;;;3.67;1.23;;;20.40;53.00;;;;;;5032155;28;20249;-58
2020/12/21 07:49:46;;;;;;;1.97;1.03;;;20.30;53.00;;;;;;4993463;28;20589;-59
2020/12/21 07:52:15;;;;;;;2.40;1.13;;;19.90;54.00;;;;;;5024279;28;20227;-57
2020/12/21 07:54:43;;;;;;;3.17;1.20;;;19.60;54.30;;;;;;4999786;28;20229;-56
2020/12/21 07:57:13;;;;;;;3.03;1.17;;;19.40;54.80;;;;;;5033824;28;20719;-60
2020/12/21 07:59:41;;;;;;;2.47;1.30;;;19.30;55.10;;;;;;5013465;28;20227;-60
2020/12/21 08:02:09;;;;;;;3.70;1.60;;;19.10;55.30;;;;;;5034415;28;20218;-60
2020/12/21 08:04:35;;;;;;;3.73;1.47;;;19.00;55.50;;;;;;5016785;28;20234;-59
2020/12/21 08:07:10;;;;;;;2.57;1.17;;;19.00;55.70;;;;;;5024580;28;20677;-58
2020/12/21 08:09:37;;;;;;;3.23;1.20;;;18.90;55.80;;;;;;5016964;28;20562;-58
2020/12/21 08:12:11;;;;;;;3.27;1.17;;;18.90;55.90;;;;;;5025984;28;20231;-58
2020/12/21 08:14:38;;;;;;;3.70;1.50;;;18.90;55.90;;;;;;5016497;28;20226;-58
2020/12/21 08:17:20;;;;;;;2.53;1.23;;;18.80;55.80;;;;;;5025630;28;20223;-57
2020/12/21 08:19:54;;;;;;;3.20;1.37;;;18.80;55.80;;;;;;5017074;28;20238;-58
2020/12/21 08:22:25;;;;;;;3.23;1.20;;;18.70;55.90;;;;;;5025568;28;20616;-60
2020/12/21 08:25:01;;;;;;;2.63;1.23;;;18.70;55.90;;;;;;5024353;28;20215;-58
2020/12/21 08:27:28;;;;;;;1.97;0.90;;;18.70;56.00;;;;;;5025772;28;20562;-59
2020/12/21 08:30:12;;;;;;;3.27;1.27;;;18.60;56.00;;;;;;5028739;28;20261;-59
2020/12/21 08:32:40;;;;;;;3.43;1.40;;;18.60;56.00;;;;;;5025540;28;20529;-59
2020/12/21 08:35:06;;;;;;;4.27;1.70;;;18.50;56.10;;;;;;5028315;28;20612;-60
2020/12/21 08:37:34;;;;;;;6.67;2.00;;;18.50;56.40;;;;;;5016073;28;20576;-58
2020/12/21 08:40:10;;;;;;;4.90;1.90;;;18.50;56.40;;;;;;5027062;28;20234;-59
2020/12/21 08:42:37;;;;;;;6.30;1.90;;;18.40;56.50;;;;;;5018672;28;20230;-58
2020/12/21 08:45:05;;;;;;;8.23;2.00;;;18.40;56.50;;;;;;5025311;28;20238;-59
2020/12/21 08:47:31;;;;;;;5.43;1.80;;;18.30;56.40;;;;;;5015154;28;20233;-58
2020/12/21 08:49:57;;;;;;;4.77;1.77;;;18.30;56.40;;;;;;5025081;28;20250;-60
2020/12/21 08:52:23;;;;;;;5.60;1.97;;;18.20;56.40;;;;;;5017969;28;20590;-58
2020/12/21 08:54:49;;;;;;;7.57;2.43;;;18.20;56.40;;;;;;5023981;28;20752;-58
2020/12/21 08:57:16;;;;;;;3.77;1.77;;;18.20;56.50;;;;;;5019186;28;21288;-58
2020/12/21 08:59:42;;;;;;;3.93;1.93;;;18.10;56.50;;;;;;5026367;28;20952;-58
2020/12/21 09:02:08;;;;;;;5.83;2.00;;;18.10;56.70;;;;;;5019297;28;20881;-59
2020/12/21 09:04:34;;;;;;;9.87;2.10;;;18.10;56.90;;;;;;5028412;28;20226;-58
2020/12/21 09:07:06;;;;;;;7.33;2.47;;;18.10;56.80;;;;;;5018828;28;20227;-58
2020/12/21 09:09:32;;;;;;;8.43;2.27;;;18.10;56.90;;;;;;5025179;28;20223;-57
2020/12/21 09:12:04;;;;;;;5.67;2.00;;;18.10;57.00;;;;;;5018824;28;20219;-59
2020/12/21 09:14:30;;;;;;;5.70;1.80;;;18.00;57.00;;;;;;5025105;28;20219;-58
2020/12/21 09:16:56;;;;;;;4.53;1.50;;;18.00;57.20;;;;;;5026700;28;20222;-59
2020/12/21 09:19:22;;;;;;;7.43;2.00;;;18.00;56.90;;;;;;5017405;28;20223;-57
2020/12/21 09:21:49;;;;;;;7.03;2.30;;;18.00;57.30;;;;;;5027483;28;21292;-57
2020/12/21 09:24:15;;;;;;;5.23;2.17;;;18.00;57.30;;;;;;5019780;28;20230;-56
2020/12/21 09:26:42;;;;;;;5.03;1.87;;;17.90;57.20;;;;;;5023721;28;20704;-59
2020/12/21 09:29:08;;;;;;;6.03;1.80;;;17.90;57.30;;;;;;5011251;28;20274;-59
2020/12/21 09:31:34;;;;;;;5.40;2.03;;;17.90;57.30;;;;;;5018413;28;20241;-60
2020/12/21 09:34:01;;;;;;;5.60;2.00;;;17.90;57.20;;;;;;5013511;28;20938;-61
2020/12/21 09:36:29;;;;;;;3.83;1.63;;;17.90;57.10;;;;;;5024457;28;20223;-60
2020/12/21 09:39:10;;;;;;;3.57;1.50;;;17.90;57.20;;;;;;5003010;28;20450;-58
2020/12/21 09:41:36;;;;;;;7.30;2.10;;;17.90;57.20;;;;;;5016774;28;20239;-60
2020/12/21 09:44:06;;;;;;;4.73;1.70;;;17.90;57.30;;;;;;5005852;28;20824;-58
2020/12/21 09:46:32;;;;;;;6.00;1.60;;;17.80;57.20;;;;;;5024300;28;20242;-60
2020/12/21 09:49:03;;;;;;;4.93;1.73;;;17.90;57.30;;;;;;5018368;28;20226;-59
2020/12/21 09:51:32;;;;;;;2.73;1.30;;;17.80;57.00;;;;;;5022938;28;20645;-60
2020/12/21 09:53:58;;;;;;;3.27;1.67;;;17.80;56.90;;;;;;5015344;28;20219;-60
2020/12/21 09:56:25;;;;;;;5.27;1.60;;;17.80;57.10;;;;;;5022595;28;20235;-60
2020/12/21 09:58:51;;;;;;;3.67;1.80;;;17.80;57.20;;;;;;5020163;28;20786;-60
2020/12/21 10:01:18;;;;;;;4.50;1.57;;;17.80;56.90;;;;;;5019650;28;20231;-60
2020/12/21 10:03:44;;;;;;;4.13;1.50;;;17.80;57.00;;;;;;5026995;28;20972;-59
2020/12/21 10:06:11;;;;;;;3.30;1.40;;;17.70;57.00;;;;;;5017079;28;21049;-59
2020/12/21 10:08:39;;;;;;;4.53;1.50;;;17.80;57.70;;;;;;5027270;28;20239;-60
2020/12/21 10:11:06;;;;;;;4.30;1.50;;;17.80;57.10;;;;;;5019211;28;20931;-59
2020/12/21 10:13:35;;;;;;;3.23;1.57;;;17.80;57.00;;;;;;5026076;28;20924;-59
2020/12/21 10:16:02;;;;;;;5.27;1.90;;;17.70;57.00;;;;;;5018307;28;20761;-61
2020/12/21 10:18:28;;;;;;;2.60;1.27;;;17.70;57.00;;;;;;5024457;28;20227;-60
2020/12/21 10:20:54;;;;;;;3.63;1.40;;;17.70;57.00;;;;;;5015465;28;20611;-61
2020/12/21 10:23:21;;;;;;;2.87;1.33;;;17.70;57.60;;;;;;5024891;28;22300;-61
2020/12/21 10:25:48;;;;;;;2.80;1.37;;;17.70;56.90;;;;;;5016472;28;20237;-58
2020/12/21 10:28:14;;;;;;;3.83;1.60;;;17.70;56.80;;;;;;5017073;28;20230;-61
2020/12/21 10:30:42;;;;;;;3.10;1.20;;;17.70;57.00;;;;;;5010763;28;20369;-59
2020/12/21 10:33:08;;;;;;;2.40;1.17;;;17.70;56.90;;;;;;5017862;28;20232;-61
2020/12/21 10:35:38;;;;;;;3.17;1.17;;;17.70;57.00;;;;;;5009409;28;20235;-60
2020/12/21 10:38:04;;;;;;;3.17;1.20;;;17.60;56.90;;;;;;5016960;28;20598;-60
2020/12/21 10:40:31;;;;;;;3.60;1.33;;;17.60;56.90;;;;;;4999571;28;20239;-59
2020/12/21 10:42:57;;;;;;;4.87;1.53;;;17.70;56.90;;;;;;5010126;28;20226;-59
2020/12/21 10:45:23;;;;;;;1.77;1.20;;;17.60;56.80;;;;;;5021450;28;20237;-61
2020/12/21 10:47:50;;;;;;;2.97;1.30;;;17.60;56.90;;;;;;5009664;28;20234;-59
2020/12/21 10:50:16;;;;;;;4.30;1.30;;;17.70;56.80;;;;;;5019254;28;20234;-60
2020/12/21 10:52:42;;;;;;;2.87;1.43;;;17.70;56.80;;;;;;5011343;28;20706;-60
2020/12/21 10:55:09;;;;;;;5.47;1.53;;;17.60;56.80;;;;;;5005047;28;20236;-58
2020/12/21 10:57:35;;;;;;;3.17;1.30;;;17.60;56.70;;;;;;5005937;28;20858;-59
2020/12/21 11:00:05;;;;;;;3.57;1.20;;;17.60;56.80;;;;;;5010464;28;20226;-59
2020/12/21 11:02:31;;;;;;;6.23;1.40;;;17.60;56.70;;;;;;5000274;28;20219;-59
2020/12/21 11:04:57;;;;;;;3.07;1.30;;;17.60;56.80;;;;;;5010669;28;22129;-59
2020/12/21 11:07:24;;;;;;;4.03;1.50;;;17.60;56.60;;;;;;5005375;28;20243;-58
2020/12/21 11:10:08;;;;;;;3.47;1.60;;;17.60;56.70;;;;;;5014084;28;20775;-59
2020/12/21 11:12:36;;;;;;;3.73;1.47;;;17.60;56.70;;;;;;5003592;28;20449;-58
2020/12/21 11:15:03;;;;;;;3.77;1.43;;;17.60;56.80;;;;;;5014892;28;20226;-58
2020/12/21 11:17:30;;;;;;;3.53;1.40;;;17.60;56.80;;;;;;5005285;28;20234;-59
2020/12/21 11:19:58;;;;;;;2.87;1.30;;;17.60;56.80;;;;;;5016478;28;20249;-59
2020/12/21 11:22:24;;;;;;;4.07;1.33;;;17.60;57.30;;;;;;5008126;28;20256;-59
2020/12/21 11:24:50;;;;;;;6.43;2.37;;;17.60;57.10;;;;;;5011569;28;20231;-59
2020/12/21 11:27:17;;;;;;;14.70;3.73;;;17.60;56.90;;;;;;5008390;28;20226;-59
2020/12/21 11:29:44;;;;;;;17.67;3.97;;;17.60;56.90;;;;;;5013453;28;20234;-59
2020/12/21 11:32:20;;;;;;;21.03;4.67;;;17.60;56.80;;;;;;5020288;28;21614;-59
2020/12/21 11:34:46;;;;;;;15.47;4.47;;;17.60;56.60;;;;;;5013513;28;20250;-59
2020/12/21 11:37:12;;;;;;;16.83;4.93;;;17.60;56.60;;;;;;5021458;28;20296;-59
2020/12/21 11:39:39;;;;;;;14.47;4.03;;;17.60;56.70;;;;;;5016179;28;20229;-59
2020/12/21 11:42:09;;;;;;;10.20;4.37;;;17.60;56.80;;;;;;5024766;28;20231;-61
2020/12/21 11:44:35;;;;;;;18.20;4.33;;;17.60;56.80;;;;;;5015716;28;20230;-61
2020/12/21 11:47:07;;;;;;;16.93;4.77;;;17.50;56.80;;;;;;5013058;28;20219;-60
2020/12/21 11:49:33;;;;;;;11.23;4.10;;;17.50;56.70;;;;;;5008059;28;20222;-60
2020/12/21 11:52:00;;;;;;;14.50;4.10;;;17.60;56.80;;;;;;5023586;28;20572;-61
2020/12/21 11:54:26;;;;;;;8.43;3.70;;;17.60;56.80;;;;;;5017069;28;20238;-61
2020/12/21 11:56:56;;;;;;;9.17;3.43;;;17.50;56.80;;;;;;5020794;28;20219;-61
2020/12/21 11:59:23;;;;;;;9.57;3.53;;;17.50;57.00;;;;;;5012447;28;20237;-59
2020/12/21 12:02:03;;;;;;;11.87;3.30;;;17.50;56.80;;;;;;5017410;28;20250;-57
2020/12/21 12:04:32;;;;;;;10.63;4.17;;;17.50;57.70;;;;;;5012480;28;20825;-58
2020/12/21 12:07:01;;;;;;;12.47;3.40;;;17.60;57.70;;;;;;5016974;28;20791;-60
2020/12/21 12:09:29;;;;;;;11.27;3.40;;;17.60;57.90;;;;;;5006502;28;20222;-59
2020/12/21 12:11:56;;;;;;;12.10;3.00;;;17.60;57.60;;;;;;5015182;28;20227;-59
2020/12/21 12:14:23;;;;;;;9.13;2.93;;;17.60;57.50;;;;;;5014063;28;20741;-59
2020/12/21 12:16:49;;;;;;;8.90;2.67;;;17.60;57.50;;;;;;5002635;28;20233;-57
2020/12/21 12:19:16;;;;;;;11.80;2.93;;;17.60;57.30;;;;;;5019530;28;22387;-59
2020/12/21 12:21:42;;;;;;;9.63;3.00;;;17.60;57.10;;;;;;5013803;28;20242;-58
2020/12/21 12:24:09;;;;;;;7.63;2.73;;;17.60;57.10;;;;;;5018081;28;20223;-60
2020/12/21 12:26:36;;;;;;;4.17;2.63;;;17.60;57.40;;;;;;4995439;28;20235;-58
2020/12/21 12:29:02;;;;;;;4.77;2.80;;;17.60;57.50;;;;;;5015678;28;20219;-58
2020/12/21 12:31:29;;;;;;;5.87;2.53;;;17.60;58.00;;;;;;5003547;28;20233;-58
2020/12/21 12:33:55;;;;;;;26.77;4.50;;;17.60;58.20;;;;;;5001727;28;20238;-57
2020/12/21 12:36:23;;;;;;;50.57;8.00;;;17.60;58.60;;;;;;4992576;28;20601;-59
2020/12/21 12:38:50;;;;;;;113.50;16.10;;;17.60;58.70;;;;;;5002237;28;20579;-57
2020/12/21 12:41:17;;;;;;;276.60;31.63;;;17.70;58.80;;;;;;4995904;28;20251;-57
2020/12/21 12:43:43;;;;;;;380.17;46.73;;;17.70;59.00;;;;;;5001665;28;20223;-57
2020/12/21 12:46:09;;;;;;;330.33;41.97;;;17.80;58.80;;;;;;5000212;28;20345;-59
2020/12/21 12:48:36;;;;;;;246.47;32.10;;;17.80;58.90;;;;;;5012919;28;20219;-56
2020/12/21 12:51:05;;;;;;;281.73;35.10;;;17.80;58.80;;;;;;4999530;28;20854;-58